Time;durP1;ratioP1;P1;durP2;ratioP2;P2;SDS_P1;SDS_P2;PMS_P1;PMS_P2;Temp;Humidity;BMP_temperature;BMP_pressure;BME280_temperature;BME280_humidity;BME280_pressure;Samples;Min_cycle;Max_cycle;Signal;HPM_P1;HPM_P2
2022/01/15 00:00:06;;;;;;;4.07;1.80;;;;;;;-4.70;100.00;94191.44;2097760;28;20025;-84
2022/01/15 00:01:07;;;;;;;2.72;1.83;;;;;;;-4.73;100.00;94183.47;2106666;28;20444;-83
2022/01/15 00:02:08;;;;;;;2.28;1.70;;;;;;;-4.76;100.00;94182.19;2099620;28;20040;-83
2022/01/15 00:03:11;;;;;;;2.55;1.35;;;;;;;-4.74;100.00;94181.91;2105653;28;20046;-84
2022/01/15 00:04:12;;;;;;;1.95;1.50;;;;;;;-4.74;100.00;94182.69;2113739;28;20758;-84
2022/01/15 00:05:14;;;;;;;4.22;1.65;;;;;;;-4.73;100.00;94180.84;2097001;28;20458;-83
2022/01/15 00:06:15;;;;;;;2.22;1.73;;;;;;;-4.82;100.00;94181.53;2097449;28;20599;-84
2022/01/15 00:07:16;;;;;;;3.55;2.17;;;;;;;-4.73;100.00;94183.47;2105235;28;20048;-83
2022/01/15 00:08:17;;;;;;;2.80;1.98;;;;;;;-4.72;100.00;94179.78;2105690;28;20486;-84
2022/01/15 00:09:19;;;;;;;1.85;1.50;;;;;;;-4.71;100.00;94174.25;2100241;28;20027;-84
2022/01/15 00:10:25;;;;;;;2.88;1.52;;;;;;;-4.69;100.00;94179.97;2103759;28;20940;-83
2022/01/15 00:11:26;;;;;;;3.92;1.60;;;;;;;-4.69;100.00;94179.97;2091239;28;20473;-83
2022/01/15 00:12:34;;;;;;;2.95;1.67;;;;;;;-4.74;100.00;94174.06;2106494;28;20016;-83
2022/01/15 00:13:39;;;;;;;2.28;1.60;;;;;;;-4.79;100.00;94169.75;2114625;28;20024;-84
2022/01/15 00:14:42;;;;;;;2.30;1.55;;;;;;;-4.80;100.00;94170.81;2098482;28;20103;-83
2022/01/15 00:15:49;;;;;;;3.05;1.60;;;;;;;-4.85;100.00;94163.09;2106730;28;20469;-84
2022/01/15 00:16:57;;;;;;;2.45;1.30;;;;;;;-4.89;100.00;94164.75;2099040;28;20028;-83
2022/01/15 00:18:04;;;;;;;2.15;1.48;;;;;;;-4.87;100.00;94170.47;2108391;28;20028;-83
2022/01/15 00:19:12;;;;;;;3.92;1.50;;;;;;;-4.86;100.00;94170.16;2106503;28;20031;-83
2022/01/15 00:20:21;;;;;;;2.42;1.35;;;;;;;-4.94;100.00;94163.03;2108004;27;20430;-83
2022/01/15 00:21:22;;;;;;;1.70;1.40;;;;;;;-4.90;100.00;94169.19;2106294;28;20020;-83
2022/01/15 00:22:23;;;;;;;2.10;1.73;;;;;;;-4.88;100.00;94156.63;2114628;28;20031;-83
2022/01/15 00:23:26;;;;;;;2.13;1.63;;;;;;;-4.88;100.00;94161.06;2106485;28;20111;-83
2022/01/15 00:24:27;;;;;;;2.58;2.03;;;;;;;-4.87;100.00;94158.19;2106023;28;20751;-84
2022/01/15 00:25:30;;;;;;;2.47;2.13;;;;;;;-4.91;100.00;94154.63;2097992;28;20020;-83
2022/01/15 00:26:32;;;;;;;2.28;1.60;;;;;;;-4.87;100.00;94158.19;2103515;28;20024;-84
2022/01/15 00:27:33;;;;;;;2.47;1.80;;;;;;;-4.88;100.00;94158.47;2098181;28;20110;-84
2022/01/15 00:28:34;;;;;;;1.75;1.60;;;;;;;-4.91;100.00;94149.41;2098068;28;20032;-83
2022/01/15 00:29:35;;;;;;;2.72;1.77;;;;;;;-4.95;100.00;94147.69;2097910;28;20063;-82
2022/01/15 00:30:36;;;;;;;2.42;1.75;;;;;;;-4.94;100.00;94157.03;2106271;28;20036;-83
2022/01/15 00:31:37;;;;;;;2.38;1.98;;;;;;;-4.96;100.00;94149.50;2103982;28;20036;-83
2022/01/15 00:32:38;;;;;;;1.95;1.60;;;;;;;-4.96;100.00;94149.50;2106444;28;20034;-83
2022/01/15 00:33:40;;;;;;;3.20;2.22;;;;;;;-4.94;100.00;94147.38;2114768;28;20712;-83
2022/01/15 00:34:41;;;;;;;3.65;2.25;;;;;;;-4.96;100.00;94144.31;2097780;28;20029;-83
2022/01/15 00:35:42;;;;;;;3.25;1.67;;;;;;;-4.97;100.00;94139.38;2106249;28;20028;-84
2022/01/15 00:36:43;;;;;;;5.05;2.25;;;;;;;-4.97;100.00;94139.38;2106434;28;20134;-84
2022/01/15 00:37:45;;;;;;;2.03;1.63;;;;;;;-4.97;100.00;94137.53;2106378;28;20468;-84
2022/01/15 00:38:47;;;;;;;3.25;2.33;;;;;;;-4.98;100.00;94141.19;2114672;28;20027;-84
2022/01/15 00:39:50;;;;;;;3.20;1.73;;;;;;;-5.02;100.00;94142.06;2113144;27;20054;-84
2022/01/15 00:40:51;;;;;;;1.98;1.70;;;;;;;-5.00;100.00;94142.53;2106181;28;20028;-83
2022/01/15 00:41:52;;;;;;;3.10;1.92;;;;;;;-4.97;100.00;94139.38;2106232;28;20024;-84
2022/01/15 00:42:53;;;;;;;2.78;2.03;;;;;;;-4.92;100.00;94137.41;2114633;28;20023;-84
2022/01/15 00:43:54;;;;;;;3.78;1.83;;;;;;;-4.95;100.00;94134.66;2106132;28;20027;-84
2022/01/15 00:44:57;;;;;;;2.03;1.73;;;;;;;-5.00;100.00;94137.34;2102238;28;20531;-84
2022/01/15 00:45:58;;;;;;;2.65;1.98;;;;;;;-5.03;100.00;94130.88;2106634;28;20020;-84
2022/01/15 00:46:59;;;;;;;1.88;1.63;;;;;;;-5.06;100.00;94131.47;2106278;28;20085;-84
2022/01/15 00:48:00;;;;;;;2.38;1.50;;;;;;;-5.09;100.00;94132.84;2101187;28;20020;-83
2022/01/15 00:49:01;;;;;;;2.97;1.65;;;;;;;-5.06;100.00;94128.84;2106439;28;20126;-84
2022/01/15 00:50:05;;;;;;;2.22;1.98;;;;;;;-5.06;100.00;94126.25;2088936;28;20057;-84
2022/01/15 00:51:06;;;;;;;2.72;1.75;;;;;;;-5.01;100.00;94128.75;2097969;28;20016;-84
2022/01/15 00:52:07;;;;;;;3.75;1.85;;;;;;;-4.96;100.00;94127.88;2106199;28;20031;-84
2022/01/15 00:53:08;;;;;;;2.03;1.80;;;;;;;-4.99;100.00;94124.03;2097855;28;20055;-84
2022/01/15 00:54:09;;;;;;;2.53;2.08;;;;;;;-5.03;100.00;94117.84;2089725;28;20033;-84
2022/01/15 00:55:12;;;;;;;3.55;1.92;;;;;;;-5.08;100.00;94121.34;2097837;28;20103;-84
2022/01/15 00:56:16;;;;;;;3.15;1.85;;;;;;;-5.04;100.00;94121.53;2090234;28;20072;-84
2022/01/15 00:57:18;;;;;;;4.30;1.75;;;;;;;-5.00;100.00;94127.69;2090500;28;20028;-84
2022/01/15 00:58:19;;;;;;;2.35;1.92;;;;;;;-5.04;100.00;94118.16;2106294;28;20035;-83
2022/01/15 00:59:20;;;;;;;2.17;1.83;;;;;;;-5.06;100.00;94118.44;2122969;27;20015;-84
2022/01/15 01:00:23;;;;;;;2.45;1.85;;;;;;;-5.08;100.00;94115.34;2106181;28;20073;-84
2022/01/15 01:01:24;;;;;;;2.15;1.60;;;;;;;-5.11;100.00;94116.69;2106477;28;20043;-83
2022/01/15 01:02:25;;;;;;;3.58;1.90;;;;;;;-5.09;100.00;94116.44;2106124;28;20127;-83
2022/01/15 01:03:26;;;;;;;2.65;1.80;;;;;;;-5.08;100.00;94113.50;2106049;28;20032;-83
2022/01/15 01:04:40;;;;;;;3.60;2.20;;;;;;;-5.08;100.00;94115.34;2089477;28;20029;-83
2022/01/15 01:05:41;;;;;;;1.83;1.42;;;;;;;-5.10;100.00;94110.41;2101491;28;20016;-83
2022/01/15 01:06:42;;;;;;;3.80;1.90;;;;;;;-5.12;100.00;94117.78;2100304;28;20492;-83
2022/01/15 01:07:44;;;;;;;5.07;2.28;;;;;;;-5.13;100.00;94112.84;2097825;28;20016;-84
2022/01/15 01:08:45;;;;;;;2.90;2.20;;;;;;;-5.11;100.00;94108.88;2097873;28;20041;-83
2022/01/15 01:10:03;;;;;;;4.15;2.25;;;;;;;-5.08;100.00;94102.31;2089476;28;20082;-84
2022/01/15 01:11:11;;;;;;;5.75;2.40;;;;;;;-5.10;100.00;94113.03;2093908;28;20032;-83
2022/01/15 01:12:31;;;;;;;3.22;2.30;;;;;;;-5.12;100.00;94115.16;2090511;28;20148;-84
2022/01/15 01:20:19;;;;;;;5.43;2.10;;;;;;;-5.13;100.00;94118.06;2100317;28;20029;-83
2022/01/15 01:23:24;;;;;;;3.22;2.10;;;;;;;-5.19;100.00;94109.56;2114375;28;20019;-83
2022/01/15 01:24:28;;;;;;;4.05;1.95;;;;;;;-5.22;100.00;94104.97;2101966;28;20123;-83
2022/01/15 01:25:57;;;;;;;4.30;2.25;;;;;;;-5.19;100.00;94099.13;2097902;28;20024;-84
2022/01/15 01:27:55;;;;;;;4.60;2.47;;;;;;;-5.20;100.00;94108.03;2106017;28;20110;-83
2022/01/15 01:33:32;;;;;;;2.88;1.90;;;;;;;-5.15;100.00;94094.88;2098905;28;20587;-84
2022/01/15 01:34:36;;;;;;;3.70;2.10;;;;;;;-5.17;100.00;94088.44;2106903;28;20043;-83
2022/01/15 01:35:44;;;;;;;3.63;2.40;;;;;;;-5.24;100.00;94086.22;2098001;28;20380;-83
2022/01/15 01:38:14;;;;;;;3.38;2.00;;;;;;;-5.23;100.00;94090.38;2099774;28;20842;-83
2022/01/15 01:39:19;;;;;;;2.58;1.92;;;;;;;-5.24;100.00;94095.88;2090513;28;20028;-83
2022/01/15 01:40:27;;;;;;;3.50;2.20;;;;;;;-5.24;100.00;94099.25;2082213;28;20029;-84
2022/01/15 01:41:37;;;;;;;4.20;1.92;;;;;;;-5.24;100.00;94093.28;2098377;28;20032;-84
2022/01/15 01:43:54;;;;;;;2.35;2.13;;;;;;;-5.22;100.00;94094.53;2098777;28;20127;-84
2022/01/15 01:44:28;;;;;;;3.10;1.90;;;;;;;-5.26;100.00;94088.38;2102064;28;20797;-83
2022/01/15 01:45:53;;;;;;;3.07;1.97;;;;;;;-5.32;100.00;94089.50;2098669;28;20069;-84
2022/01/15 01:47:03;;;;;;;2.65;1.95;;;;;;;-5.30;100.00;94092.63;2095503;28;20440;-84
2022/01/15 01:48:51;;;;;;;;;;;;;;;-5.33;100.00;94090.56;2100570;28;20381;-83
2022/01/15 01:49:52;;;;;;;3.35;2.03;;;;;;;-5.26;100.00;94092.81;2109860;28;20402;-84
2022/01/15 01:53:52;;;;;;;3.00;1.98;;;;;;;-5.27;100.00;94094.63;2068932;28;20105;-83
2022/01/15 02:01:08;;;;;;;2.58;1.73;;;;;;;-5.27;100.00;94086.78;2094279;28;20046;-83
2022/01/15 02:02:10;;;;;;;2.72;1.83;;;;;;;-5.20;100.00;94083.81;2088901;28;20139;-83
2022/01/15 02:03:11;;;;;;;3.03;2.13;;;;;;;-5.27;100.00;94080.81;2089266;28;20029;-83
2022/01/15 02:04:12;;;;;;;3.97;2.13;;;;;;;-5.24;100.00;94075.03;2088969;28;20055;-83
2022/01/15 02:05:14;;;;;;;2.55;1.80;;;;;;;-5.26;100.00;94079.78;2103855;28;20555;-83
2022/01/15 02:06:18;;;;;;;2.28;1.92;;;;;;;-5.35;100.00;94079.69;2097602;28;20027;-83
2022/01/15 02:07:19;;;;;;;2.28;2.08;;;;;;;-5.37;100.00;94084.41;2089884;28;20450;-84
2022/01/15 02:10:21;;;;;;;2.97;2.00;;;;;;;-5.46;100.00;94080.94;2148188;27;20185;-82
2022/01/15 02:11:24;;;;;;;3.05;1.77;;;;;;;-5.46;100.00;94079.09;2121512;28;20035;-81
2022/01/15 02:12:29;;;;;;;2.35;1.80;;;;;;;-5.41;100.00;94067.81;2105307;28;20465;-82
2022/01/15 02:13:34;;;;;;;2.22;1.60;;;;;;;-5.43;100.00;94072.56;2105596;28;20074;-82
2022/01/15 02:14:36;;;;;;;3.55;2.10;;;;;;;-5.50;100.00;94072.94;2121960;27;20027;-82
2022/01/15 02:15:37;;;;;;;3.28;2.00;;;;;;;-5.50;100.00;94077.38;2113230;28;20020;-82
2022/01/15 02:16:38;;;;;;;3.03;2.10;;;;;;;-5.53;100.00;94070.94;2104578;28;20020;-82
2022/01/15 02:17:40;;;;;;;3.40;1.77;;;;;;;-5.57;100.00;94067.38;2113112;27;20059;-82
2022/01/15 02:18:42;;;;;;;3.30;2.08;;;;;;;-5.54;100.00;94073.81;2113076;28;20028;-82
2022/01/15 02:20:08;;;;;;;2.72;2.00;;;;;;;-5.54;100.00;94071.97;2121607;27;20023;-81
2022/01/15 02:23:33;;;;;;;3.03;2.13;;;;;;;-5.44;100.00;94069.19;2121472;28;20019;-82
2022/01/15 02:24:34;;;;;;;3.13;2.17;;;;;;;-5.50;100.00;94069.56;2113024;28;20030;-82
2022/01/15 02:25:50;;;;;;;2.38;1.70;;;;;;;-5.53;100.00;94075.34;2104395;28;20024;-82
2022/01/15 02:26:59;;;;;;;4.20;2.17;;;;;;;-5.50;100.00;94062.53;2106407;28;20024;-81
2022/01/15 02:28:00;;;;;;;3.05;2.00;;;;;;;-5.53;100.00;94070.94;2098536;28;20028;-82
2022/01/15 02:29:03;;;;;;;3.03;1.88;;;;;;;-5.57;100.00;94065.53;2096771;28;20067;-82
2022/01/15 02:30:05;;;;;;;2.83;1.85;;;;;;;-5.54;100.00;94069.38;2104603;28;20029;-81
2022/01/15 02:31:14;;;;;;;2.35;2.15;;;;;;;-5.52;100.00;94072.47;2097668;28;20074;-82
2022/01/15 02:32:15;;;;;;;3.53;2.08;;;;;;;-5.52;100.00;94067.25;2114231;28;20019;-82
2022/01/15 02:33:16;;;;;;;4.28;2.33;;;;;;;-5.59;100.00;94069.47;2104414;28;20032;-82
2022/01/15 02:34:22;;;;;;;2.70;2.20;;;;;;;-5.61;100.00;94072.38;2104495;28;20040;-82
2022/01/15 02:35:28;;;;;;;4.40;2.10;;;;;;;-5.55;100.00;94072.28;2105021;28;20115;-81
2022/01/15 02:36:36;;;;;;;2.60;1.90;;;;;;;-5.45;100.00;94066.84;2097430;28;20119;-82
2022/01/15 02:37:42;;;;;;;3.35;2.17;;;;;;;-5.40;100.00;94064.94;2099836;28;20124;-82
2022/01/15 02:38:46;;;;;;;3.15;2.05;;;;;;;-5.41;100.00;94060.00;2105689;28;20055;-82
2022/01/15 02:39:52;;;;;;;2.97;2.00;;;;;;;-5.47;100.00;94061.19;2113447;27;20032;-82
2022/01/15 02:40:55;;;;;;;2.72;2.15;;;;;;;-5.50;100.00;94066.97;2113408;28;20722;-82
2022/01/15 02:41:56;;;;;;;3.25;2.00;;;;;;;-5.64;100.00;94059.94;2096598;28;20017;-82
2022/01/15 02:43:00;;;;;;;3.10;2.70;;;;;;;-5.61;100.00;94059.34;2095912;28;20070;-81
2022/01/15 02:44:04;;;;;;;3.58;1.85;;;;;;;-5.53;100.00;94065.72;2105214;28;20472;-82
2022/01/15 02:45:08;;;;;;;3.70;2.53;;;;;;;-5.55;100.00;94059.25;2104820;28;20020;-81
2022/01/15 02:48:41;;;;;;;1.75;1.65;;;;;;;-5.57;100.00;94057.72;2127412;27;20475;-82
2022/01/15 02:49:42;;;;;;;1.92;1.52;;;;;;;-5.55;100.00;94057.41;2112557;28;20030;-82
2022/01/15 02:50:44;;;;;;;2.90;2.00;;;;;;;-5.57;100.00;94057.72;2112861;28;20062;-82
2022/01/15 02:51:45;;;;;;;3.88;2.03;;;;;;;-5.62;100.00;94051.81;2104312;28;20024;-81
2022/01/15 02:52:46;;;;;;;2.85;1.80;;;;;;;-5.60;100.00;94050.47;2104315;28;20044;-82
2022/01/15 02:53:54;;;;;;;2.80;1.80;;;;;;;-5.61;100.00;94054.16;2112691;28;20111;-82
2022/01/15 02:54:55;;;;;;;3.88;1.83;;;;;;;-5.62;100.00;94044.00;2113623;28;20019;-82
2022/01/15 02:55:56;;;;;;;1.88;1.48;;;;;;;-5.65;100.00;94050.59;2112684;28;20047;-82
2022/01/15 02:56:58;;;;;;;2.38;1.75;;;;;;;-5.69;100.00;94054.81;2104043;28;20024;-82
2022/01/15 02:58:03;;;;;;;4.20;2.30;;;;;;;-5.62;100.00;94052.63;2096247;28;20112;-82
2022/01/15 02:59:08;;;;;;;4.35;2.53;;;;;;;-5.61;100.00;94048.19;2101368;28;20017;-81
2022/01/15 03:00:13;;;;;;;3.10;2.40;;;;;;;-5.65;100.00;94055.03;2097329;28;20025;-82
2022/01/15 03:01:19;;;;;;;3.10;2.40;;;;;;;-5.69;100.00;94048.84;2104707;28;20508;-82
2022/01/15 03:02:23;;;;;;;3.20;2.10;;;;;;;-5.68;100.00;94047.78;2105573;28;20114;-82
2022/01/15 03:03:24;;;;;;;2.90;1.80;;;;;;;-5.72;100.00;94044.22;2104489;28;20054;-82
2022/01/15 03:04:29;;;;;;;3.40;1.92;;;;;;;-5.76;100.00;94051.06;2095732;28;20759;-82
2022/01/15 03:05:37;;;;;;;3.55;2.45;;;;;;;-5.84;100.00;94044.69;2097189;28;20032;-82
2022/01/15 03:06:44;;;;;;;4.78;2.45;;;;;;;-5.75;100.00;94044.78;2101791;28;20416;-82
2022/01/15 03:07:57;;;;;;;3.60;2.30;;;;;;;-5.59;100.00;94039.00;2104794;28;20028;-83
2022/01/15 03:09:04;;;;;;;3.67;2.10;;;;;;;-5.63;100.00;94037.25;2104110;28;20032;-81
2022/01/15 03:10:06;;;;;;;3.10;2.13;;;;;;;-5.69;100.00;94036.59;2096326;28;20583;-82
2022/01/15 03:11:12;;;;;;;4.38;2.00;;;;;;;-5.66;100.00;94028.22;2095793;28;20024;-82
2022/01/15 03:12:13;;;;;;;4.00;2.20;;;;;;;-5.74;100.00;94034.09;2096360;28;20484;-81
2022/01/15 03:13:14;;;;;;;2.85;2.00;;;;;;;-5.66;100.00;94028.22;2095760;28;20070;-81
2022/01/15 03:14:19;;;;;;;2.65;2.08;;;;;;;-5.56;100.00;94022.03;2095622;28;20021;-83
2022/01/15 03:15:20;;;;;;;2.72;2.13;;;;;;;-5.62;100.00;94017.97;2096019;28;20074;-82
2022/01/15 03:16:22;;;;;;;3.00;2.13;;;;;;;-5.62;100.00;94023.16;2095741;28;20649;-82
2022/01/15 03:17:23;;;;;;;2.15;1.95;;;;;;;-5.63;100.00;94017.19;2079515;28;20021;-82
2022/01/15 03:18:24;;;;;;;2.88;2.30;;;;;;;-5.65;100.00;94026.38;2079275;28;20022;-83
2022/01/15 03:19:25;;;;;;;3.08;2.25;;;;;;;-5.70;100.00;94024.66;2087322;28;20100;-82
2022/01/15 03:20:26;;;;;;;2.42;1.95;;;;;;;-5.72;100.00;94026.00;2095700;28;20024;-82
2022/01/15 03:21:27;;;;;;;2.00;1.80;;;;;;;-5.71;100.00;94025.69;2084297;28;20021;-81
2022/01/15 03:22:31;;;;;;;3.08;2.00;;;;;;;-5.72;100.00;94024.16;2081984;28;20147;-81
2022/01/15 03:23:32;;;;;;;2.92;2.00;;;;;;;-5.74;100.00;94015.09;2082865;28;20734;-81
2022/01/15 03:24:33;;;;;;;2.67;2.00;;;;;;;-5.65;100.00;94023.78;2090228;28;20111;-81
2022/01/15 03:25:34;;;;;;;4.13;2.45;;;;;;;-5.67;100.00;94021.44;2098386;28;20487;-82
2022/01/15 03:26:35;;;;;;;3.38;2.63;;;;;;;-5.71;100.00;94015.28;2090186;28;20021;-81
2022/01/15 03:27:37;;;;;;;4.10;1.95;;;;;;;-5.69;100.00;94018.38;2081859;28;20083;-81
2022/01/15 03:28:39;;;;;;;3.75;2.28;;;;;;;-5.71;100.00;94019.72;2098587;28;20024;-82
2022/01/15 03:29:41;;;;;;;2.53;1.77;;;;;;;-5.74;100.00;94020.31;2106422;28;20069;-81
2022/01/15 03:30:42;;;;;;;4.15;2.10;;;;;;;-5.75;100.00;94027.34;2090171;28;20048;-82
2022/01/15 03:31:44;;;;;;;3.25;2.10;;;;;;;-5.77;100.00;94020.88;2090006;28;20056;-82
2022/01/15 03:32:45;;;;;;;3.28;2.42;;;;;;;-5.79;100.00;94023.78;2081914;28;20073;-80
2022/01/15 03:33:46;;;;;;;3.13;1.90;;;;;;;-5.69;100.00;94017.59;2081760;28;20457;-81
2022/01/15 03:34:48;;;;;;;3.58;2.30;;;;;;;-5.62;100.00;94021.38;2081791;28;20097;-82
2022/01/15 03:35:50;;;;;;;3.00;2.20;;;;;;;-5.62;100.00;94017.97;2082292;28;20033;-81
2022/01/15 03:36:53;;;;;;;4.13;2.20;;;;;;;-5.74;100.00;94017.72;2081830;28;20033;-82
2022/01/15 03:37:54;;;;;;;3.75;2.15;;;;;;;-5.72;100.00;94020.78;2074412;28;20022;-81
2022/01/15 03:38:58;;;;;;;3.03;2.20;;;;;;;-5.71;100.00;94015.28;2081820;28;20446;-81
2022/01/15 03:39:59;;;;;;;4.13;2.33;;;;;;;-5.74;100.00;94023.69;2089892;28;20112;-81
2022/01/15 03:41:00;;;;;;;2.10;1.83;;;;;;;-5.77;100.00;94019.06;2081831;28;20021;-82
2022/01/15 03:42:02;;;;;;;4.38;1.95;;;;;;;-5.68;100.00;94016.53;2073594;28;20457;-82
2022/01/15 03:43:04;;;;;;;3.33;2.10;;;;;;;-5.68;100.00;94016.53;2082170;28;20017;-81
2022/01/15 03:44:05;;;;;;;4.50;2.30;;;;;;;-5.72;100.00;94013.75;2081891;28;20349;-81
2022/01/15 03:45:07;;;;;;;4.07;2.10;;;;;;;-5.76;100.00;94012.00;2083056;28;20028;-81
2022/01/15 03:46:08;;;;;;;3.55;2.03;;;;;;;-5.81;100.00;94010.28;2081971;28;20056;-81
2022/01/15 03:47:10;;;;;;;3.50;2.10;;;;;;;-5.86;100.00;94015.59;2073644;28;20442;-82
2022/01/15 03:48:11;;;;;;;4.20;2.60;;;;;;;-5.84;100.00;94016.84;2082425;28;20025;-81
2022/01/15 03:49:13;;;;;;;3.47;1.88;;;;;;;-5.82;100.00;94014.72;2081506;28;20045;-81
2022/01/15 03:50:16;;;;;;;4.20;2.50;;;;;;;-5.88;100.00;94012.53;2081806;28;20060;-81
2022/01/15 03:51:19;;;;;;;3.25;2.28;;;;;;;-5.92;100.00;94007.16;2074172;28;20053;-81
2022/01/15 03:52:21;;;;;;;2.67;1.92;;;;;;;-5.87;100.00;94016.66;2090614;28;20098;-81
2022/01/15 03:53:22;;;;;;;4.30;2.35;;;;;;;-5.80;100.00;94013.66;2089934;28;20679;-81
2022/01/15 03:54:24;;;;;;;4.75;2.47;;;;;;;-5.79;100.00;94009.97;2090147;28;20094;-81
2022/01/15 03:55:28;;;;;;;3.40;2.03;;;;;;;-5.84;100.00;94011.66;2090027;28;20112;-82
2022/01/15 03:56:33;;;;;;;4.88;2.33;;;;;;;-5.88;100.00;94005.47;2074404;28;20030;-82
2022/01/15 03:57:36;;;;;;;3.55;2.25;;;;;;;-5.86;100.00;93999.97;2082677;28;20429;-82
2022/01/15 03:58:39;;;;;;;2.67;2.05;;;;;;;-5.83;100.00;93997.56;2090254;28;20032;-81
2022/01/15 03:59:40;;;;;;;4.30;2.38;;;;;;;-5.87;100.00;94001.03;2087515;28;20031;-81
2022/01/15 04:00:43;;;;;;;3.70;2.42;;;;;;;-5.92;100.00;94003.78;2090386;28;20102;-82
2022/01/15 04:01:43;;;;;;;4.00;2.67;;;;;;;-5.84;100.00;93998.63;2089932;28;20040;-82
2022/01/15 04:02:45;;;;;;;3.10;2.28;;;;;;;-5.87;100.00;93996.59;2081687;28;20383;-82
2022/01/15 04:03:47;;;;;;;3.75;2.72;;;;;;;-5.92;100.00;93993.38;2073512;28;20084;-81
2022/01/15 04:04:49;;;;;;;6.40;2.33;;;;;;;-5.98;100.00;93999.72;2082036;28;20101;-81
2022/01/15 04:05:53;;;;;;;2.30;2.10;;;;;;;-5.99;100.00;93996.34;2089844;28;20124;-81
2022/01/15 04:06:54;;;;;;;4.63;2.35;;;;;;;-5.99;100.00;93995.56;2082663;28;20175;-82
2022/01/15 04:08:00;;;;;;;3.58;2.28;;;;;;;-5.99;100.00;93995.56;2098106;28;20045;-81
2022/01/15 04:09:02;;;;;;;5.65;2.58;;;;;;;-6.02;100.00;93991.72;2090801;28;20029;-82
2022/01/15 04:10:06;;;;;;;3.45;2.10;;;;;;;-5.99;100.00;93990.38;2103258;28;20119;-82
2022/01/15 04:11:09;;;;;;;4.30;2.40;;;;;;;-6.03;100.00;93994.63;2097918;28;20028;-81
2022/01/15 04:12:10;;;;;;;3.15;2.50;;;;;;;-6.01;100.00;94001.06;2089997;28;20021;-81
2022/01/15 04:13:15;;;;;;;3.35;2.42;;;;;;;-5.99;100.00;93990.38;2091813;28;20071;-81
2022/01/15 04:14:16;;;;;;;2.88;2.50;;;;;;;-5.98;100.00;93999.72;2090251;28;20059;-81
2022/01/15 04:15:18;;;;;;;4.00;2.63;;;;;;;-5.99;100.00;94000.78;2089815;28;20028;-81
2022/01/15 04:16:19;;;;;;;3.85;2.83;;;;;;;-6.03;100.00;93995.38;2089798;28;20524;-81
2022/01/15 04:17:20;;;;;;;3.35;2.50;;;;;;;-6.03;100.00;93995.38;2081457;28;20017;-81
2022/01/15 04:18:22;;;;;;;4.15;2.50;;;;;;;-5.98;100.00;94004.91;2081648;28;20024;-81
2022/01/15 04:19:24;;;;;;;3.83;2.50;;;;;;;-5.96;100.00;93997.59;2081556;28;20041;-81
2022/01/15 04:20:26;;;;;;;3.20;2.28;;;;;;;-5.98;100.00;93989.31;2081653;28;20045;-80
2022/01/15 04:21:30;;;;;;;3.35;2.58;;;;;;;-5.98;100.00;93990.06;2083609;28;20086;-80
2022/01/15 04:22:31;;;;;;;2.90;2.40;;;;;;;-5.99;100.00;93991.13;2089716;28;20043;-81
2022/01/15 04:23:32;;;;;;;4.80;2.92;;;;;;;-6.03;100.00;93986.81;2082034;28;20029;-82
2022/01/15 04:24:33;;;;;;;5.35;3.05;;;;;;;-6.10;100.00;93982.78;2098071;28;20438;-81
2022/01/15 04:25:34;;;;;;;4.05;2.78;;;;;;;-6.06;100.00;93993.34;2089646;28;20021;-81
2022/01/15 04:26:35;;;;;;;3.05;2.42;;;;;;;-6.09;100.00;93994.72;2097968;28;20074;-81
2022/01/15 04:27:37;;;;;;;4.07;3.53;;;;;;;-6.08;100.00;93985.06;2097774;28;20035;-81
2022/01/15 04:28:38;;;;;;;4.78;2.88;;;;;;;-6.15;100.00;93990.66;2081936;28;20037;-82
2022/01/15 04:29:40;;;;;;;4.60;3.03;;;;;;;-6.18;100.00;93980.06;2081454;28;20075;-81
2022/01/15 04:30:47;;;;;;;5.00;2.85;;;;;;;-6.15;100.00;93988.03;2089605;28;20620;-81
2022/01/15 04:31:48;;;;;;;5.13;3.10;;;;;;;-6.17;100.00;93989.41;2090418;28;20162;-81
2022/01/15 04:32:49;;;;;;;5.68;2.83;;;;;;;-6.17;100.00;93990.19;2081097;28;20025;-82
2022/01/15 04:33:50;;;;;;;4.25;2.80;;;;;;;-6.10;100.00;93987.22;2089266;28;20021;-81
2022/01/15 04:34:51;;;;;;;6.38;2.90;;;;;;;-6.10;100.00;93987.97;2089580;28;20087;-82
2022/01/15 04:35:52;;;;;;;5.40;2.70;;;;;;;-6.07;100.00;93991.81;2089507;28;20070;-82
2022/01/15 04:37:12;;;;;;;3.22;2.90;;;;;;;-6.02;100.00;93983.13;2089558;28;20118;-82
2022/01/15 04:38:14;;;;;;;4.53;2.67;;;;;;;-6.12;100.00;93989.31;2100774;28;20481;-83
2022/01/15 04:39:15;;;;;;;4.97;3.10;;;;;;;-6.07;100.00;93991.81;2106058;28;20020;-83
2022/01/15 04:40:16;;;;;;;4.78;3.38;;;;;;;-6.10;100.00;93982.00;2083025;28;20017;-82
2022/01/15 04:41:24;;;;;;;5.63;3.10;;;;;;;-6.09;100.00;93983.53;2081744;28;20463;-82
2022/01/15 04:42:29;;;;;;;4.05;2.95;;;;;;;-6.12;100.00;93990.06;2082019;28;20021;-82
2022/01/15 04:43:31;;;;;;;6.30;3.45;;;;;;;-6.13;100.00;93987.78;2082763;28;20535;-82
2022/01/15 04:44:32;;;;;;;5.20;3.10;;;;;;;-6.14;100.00;93975.84;2089385;28;20032;-82
2022/01/15 04:45:33;;;;;;;5.15;3.47;;;;;;;-6.21;100.00;93981.41;2097820;28;20027;-81
2022/01/15 04:46:35;;;;;;;6.93;3.53;;;;;;;-6.23;100.00;93983.53;2089549;28;20045;-81
2022/01/15 04:47:37;;;;;;;4.25;3.35;;;;;;;-6.16;100.00;93983.91;2084804;28;20029;-81
2022/01/15 04:48:41;;;;;;;6.20;3.72;;;;;;;-6.13;100.00;93987.78;2103529;28;20388;-82
2022/01/15 04:49:42;;;;;;;6.43;3.40;;;;;;;-6.15;100.00;93982.06;2106167;28;20027;-81
2022/01/15 04:50:43;;;;;;;6.70;3.28;;;;;;;-6.22;100.00;93981.72;2097662;28;20481;-82
2022/01/15 04:51:44;;;;;;;5.65;3.35;;;;;;;-6.16;100.00;93989.13;2097558;28;20111;-82
2022/01/15 04:52:47;;;;;;;3.80;2.90;;;;;;;-6.19;100.00;93984.50;2089318;28;20124;-82
2022/01/15 04:53:48;;;;;;;4.32;3.28;;;;;;;-6.16;100.00;93977.94;2081517;28;20467;-82
2022/01/15 04:54:49;;;;;;;4.18;3.08;;;;;;;-6.07;100.00;93983.25;2072984;28;20033;-81
2022/01/15 04:55:50;;;;;;;4.70;3.25;;;;;;;-6.10;100.00;93977.56;2086961;28;20021;-81
2022/01/15 04:56:51;;;;;;;4.80;2.63;;;;;;;-6.14;100.00;93981.03;2089195;28;20021;-81
2022/01/15 04:57:52;;;;;;;4.50;3.03;;;;;;;-6.17;100.00;93974.56;2089455;28;20051;-82
2022/01/15 04:58:52;;;;;;;5.15;3.15;;;;;;;-6.17;100.00;93976.41;2089454;28;20020;-82
2022/01/15 04:59:53;;;;;;;5.70;3.53;;;;;;;-6.18;100.00;93980.84;2097699;28;20551;-82
2022/01/15 05:00:54;;;;;;;3.88;2.70;;;;;;;-6.24;100.00;93981.22;2081301;28;20033;-82
2022/01/15 05:01:58;;;;;;;4.63;3.33;;;;;;;-6.20;100.00;93979.56;2081115;28;20119;-82
2022/01/15 05:03:02;;;;;;;3.40;3.10;;;;;;;-6.24;100.00;93983.81;2093406;28;20024;-83
2022/01/15 05:04:03;;;;;;;7.10;3.20;;;;;;;-6.15;100.00;93974.28;2097522;28;20025;-82
2022/01/15 05:05:09;;;;;;;4.30;3.20;;;;;;;-6.14;100.00;93981.03;2095887;28;20126;-82
2022/01/15 05:06:14;;;;;;;4.00;2.80;;;;;;;-6.22;100.00;93979.88;2088456;28;20029;-81
2022/01/15 05:07:18;;;;;;;6.60;3.03;;;;;;;-6.21;100.00;93978.03;2092605;28;20031;-83
2022/01/15 05:08:20;;;;;;;3.83;2.53;;;;;;;-6.27;100.00;93987.00;2091990;28;20043;-81
2022/01/15 05:09:22;;;;;;;4.15;3.10;;;;;;;-6.30;100.00;93977.16;2085018;28;20698;-81
2022/01/15 05:10:28;;;;;;;4.53;3.03;;;;;;;-6.27;100.00;93979.97;2104752;28;20024;-81
2022/01/15 05:11:43;;;;;;;5.72;2.83;;;;;;;-6.28;100.00;93985.44;2105642;28;20028;-82
2022/01/15 05:12:46;;;;;;;4.53;3.47;;;;;;;-6.18;100.00;93985.28;2091000;28;20029;-81
2022/01/15 05:13:50;;;;;;;4.20;2.90;;;;;;;-6.17;100.00;93982.38;2096199;28;20029;-81
2022/01/15 05:14:56;;;;;;;3.40;3.10;;;;;;;-6.17;100.00;93976.41;2089425;28;20025;-80
2022/01/15 05:16:02;;;;;;;5.85;3.20;;;;;;;-6.17;100.00;93973.81;2082064;28;20489;-81
2022/01/15 05:17:07;;;;;;;5.60;3.08;;;;;;;-6.20;100.00;93974.38;2098697;28;20031;-81
2022/01/15 05:18:12;;;;;;;5.43;3.50;;;;;;;-6.23;100.00;93975.72;2097129;28;20410;-82
2022/01/15 05:19:19;;;;;;;5.13;3.35;;;;;;;-6.31;100.00;93979.00;2081821;28;20080;-81
2022/01/15 05:20:21;;;;;;;5.45;3.35;;;;;;;-6.26;100.00;93981.50;2082544;28;20112;-81
2022/01/15 05:21:22;;;;;;;8.05;3.17;;;;;;;-6.21;100.00;93975.44;2089404;28;20025;-81
2022/01/15 05:22:25;;;;;;;6.78;3.88;;;;;;;-6.27;100.00;93972.16;2097241;28;20028;-80
2022/01/15 05:23:27;;;;;;;4.72;3.13;;;;;;;-6.27;100.00;93964.38;2101401;28;20024;-80
2022/01/15 05:24:30;;;;;;;4.22;3.08;;;;;;;-6.28;100.00;93978.41;2097410;28;20020;-80
2022/01/15 05:25:31;;;;;;;7.63;4.28;;;;;;;-6.29;100.00;93978.72;2097587;28;20031;-81
2022/01/15 05:26:32;;;;;;;4.72;3.40;;;;;;;-6.35;100.00;93970.22;2097404;28;20024;-81